sensor_id;sensor_type;location;lat;lon;timestamp;temperature;humidity
15609;DHT22;64278;45.642;13.756;2023-05-16T00:01:25;22.50;66.40
15609;DHT22;64278;45.642;13.756;2023-05-16T00:03:55;22.50;66.40
15609;DHT22;64278;45.642;13.756;2023-05-16T00:06:21;22.50;66.40
15609;DHT22;64278;45.642;13.756;2023-05-16T00:08:47;22.40;66.30
15609;DHT22;64278;45.642;13.756;2023-05-16T00:11:13;22.50;66.20
15609;DHT22;64278;45.642;13.756;2023-05-16T00:13:39;22.50;66.20
15609;DHT22;64278;45.642;13.756;2023-05-16T00:16:07;22.50;66.20
15609;DHT22;64278;45.642;13.756;2023-05-16T00:18:33;22.40;66.20
15609;DHT22;64278;45.642;13.756;2023-05-16T00:21:02;22.40;66.10
15609;DHT22;64278;45.642;13.756;2023-05-16T00:23:29;22.40;66.10
15609;DHT22;64278;45.642;13.756;2023-05-16T00:25:55;22.40;66.10
15609;DHT22;64278;45.642;13.756;2023-05-16T00:28:21;22.40;66.00
15609;DHT22;64278;45.642;13.756;2023-05-16T00:30:47;22.40;66.00
15609;DHT22;64278;45.642;13.756;2023-05-16T00:33:12;22.40;66.00
15609;DHT22;64278;45.642;13.756;2023-05-16T00:35:38;22.40;66.00
15609;DHT22;64278;45.642;13.756;2023-05-16T00:38:04;22.40;66.00
15609;DHT22;64278;45.642;13.756;2023-05-16T00:40:30;22.40;66.00
15609;DHT22;64278;45.642;13.756;2023-05-16T00:42:56;22.40;66.00
15609;DHT22;64278;45.642;13.756;2023-05-16T00:45:22;22.40;65.90
15609;DHT22;64278;45.642;13.756;2023-05-16T00:47:49;22.40;66.00
15609;DHT22;64278;45.642;13.756;2023-05-16T00:50:16;22.40;65.90
15609;DHT22;64278;45.642;13.756;2023-05-16T00:52:42;22.40;65.90
15609;DHT22;64278;45.642;13.756;2023-05-16T00:55:08;22.40;65.90
15609;DHT22;64278;45.642;13.756;2023-05-16T00:57:37;22.40;65.90
15609;DHT22;64278;45.642;13.756;2023-05-16T01:00:07;22.40;65.80
15609;DHT22;64278;45.642;13.756;2023-05-16T01:02:36;22.30;65.70
15609;DHT22;64278;45.642;13.756;2023-05-16T01:05:03;22.30;65.70
15609;DHT22;64278;45.642;13.756;2023-05-16T01:07:33;22.30;65.80
15609;DHT22;64278;45.642;13.756;2023-05-16T01:10:00;22.40;65.80
15609;DHT22;64278;45.642;13.756;2023-05-16T01:15:29;22.30;65.70
15609;DHT22;64278;45.642;13.756;2023-05-16T01:18:05;22.30;65.60
15609;DHT22;64278;45.642;13.756;2023-05-16T01:20:51;22.30;65.60
15609;DHT22;64278;45.642;13.756;2023-05-16T01:23:51;22.30;65.60
15609;DHT22;64278;45.642;13.756;2023-05-16T01:26:22;22.30;65.60
15609;DHT22;64278;45.642;13.756;2023-05-16T01:28:50;22.30;65.50
15609;DHT22;64278;45.642;13.756;2023-05-16T01:31:16;22.30;65.60
15609;DHT22;64278;45.642;13.756;2023-05-16T01:33:42;22.30;65.50
15609;DHT22;64278;45.642;13.756;2023-05-16T01:37:05;22.30;65.50
15609;DHT22;64278;45.642;13.756;2023-05-16T01:42:18;22.30;65.50
15609;DHT22;64278;45.642;13.756;2023-05-16T01:45:09;22.30;65.40
15609;DHT22;64278;45.642;13.756;2023-05-16T01:47:40;22.30;65.50
15609;DHT22;64278;45.642;13.756;2023-05-16T01:50:11;22.30;65.40
15609;DHT22;64278;45.642;13.756;2023-05-16T01:55:37;22.30;65.30
15609;DHT22;64278;45.642;13.756;2023-05-16T01:58:04;22.30;65.20
15609;DHT22;64278;45.642;13.756;2023-05-16T02:00:32;22.30;65.20
15609;DHT22;64278;45.642;13.756;2023-05-16T02:02:57;22.30;65.20
15609;DHT22;64278;45.642;13.756;2023-05-16T02:05:23;22.30;65.20
15609;DHT22;64278;45.642;13.756;2023-05-16T02:07:49;22.30;65.00
15609;DHT22;64278;45.642;13.756;2023-05-16T02:10:14;22.30;65.00
15609;DHT22;64278;45.642;13.756;2023-05-16T02:12:40;22.30;65.00
15609;DHT22;64278;45.642;13.756;2023-05-16T02:15:06;22.30;64.90
15609;DHT22;64278;45.642;13.756;2023-05-16T02:17:32;22.30;64.90
15609;DHT22;64278;45.642;13.756;2023-05-16T02:19:57;22.30;64.80
15609;DHT22;64278;45.642;13.756;2023-05-16T02:22:24;22.30;64.70
15609;DHT22;64278;45.642;13.756;2023-05-16T02:24:49;22.20;64.60
15609;DHT22;64278;45.642;13.756;2023-05-16T02:27:15;22.30;64.60
15609;DHT22;64278;45.642;13.756;2023-05-16T02:29:41;22.30;64.50
15609;DHT22;64278;45.642;13.756;2023-05-16T02:32:06;22.20;64.40
15609;DHT22;64278;45.642;13.756;2023-05-16T02:34:32;22.20;64.40
15609;DHT22;64278;45.642;13.756;2023-05-16T02:36:58;22.20;64.50
15609;DHT22;64278;45.642;13.756;2023-05-16T02:39:23;22.20;64.40
15609;DHT22;64278;45.642;13.756;2023-05-16T02:41:49;22.30;64.50
15609;DHT22;64278;45.642;13.756;2023-05-16T02:44:15;22.20;64.40
15609;DHT22;64278;45.642;13.756;2023-05-16T02:46:40;22.20;64.30
15609;DHT22;64278;45.642;13.756;2023-05-16T02:49:06;22.20;64.30
15609;DHT22;64278;45.642;13.756;2023-05-16T02:51:32;22.20;64.40
15609;DHT22;64278;45.642;13.756;2023-05-16T02:53:57;22.20;64.30
15609;DHT22;64278;45.642;13.756;2023-05-16T02:56:25;22.20;64.30
15609;DHT22;64278;45.642;13.756;2023-05-16T02:58:53;22.20;64.30
15609;DHT22;64278;45.642;13.756;2023-05-16T03:01:18;22.20;64.30
15609;DHT22;64278;45.642;13.756;2023-05-16T03:03:44;22.20;64.20
15609;DHT22;64278;45.642;13.756;2023-05-16T03:06:10;22.20;64.20
15609;DHT22;64278;45.642;13.756;2023-05-16T03:08:36;22.20;64.10
15609;DHT22;64278;45.642;13.756;2023-05-16T03:11:02;22.20;64.10
15609;DHT22;64278;45.642;13.756;2023-05-16T03:13:28;22.20;64.10
15609;DHT22;64278;45.642;13.756;2023-05-16T03:15:54;22.20;64.10
15609;DHT22;64278;45.642;13.756;2023-05-16T03:18:20;22.20;64.00
15609;DHT22;64278;45.642;13.756;2023-05-16T03:20:46;22.10;64.00
15609;DHT22;64278;45.642;13.756;2023-05-16T03:23:11;22.10;64.00
15609;DHT22;64278;45.642;13.756;2023-05-16T03:25:37;22.10;64.00
15609;DHT22;64278;45.642;13.756;2023-05-16T03:28:06;22.20;64.00
15609;DHT22;64278;45.642;13.756;2023-05-16T03:30:33;22.10;63.90
15609;DHT22;64278;45.642;13.756;2023-05-16T03:32:58;22.20;64.00
15609;DHT22;64278;45.642;13.756;2023-05-16T03:35:24;22.10;63.90
15609;DHT22;64278;45.642;13.756;2023-05-16T03:37:50;22.20;64.00
15609;DHT22;64278;45.642;13.756;2023-05-16T03:40:15;22.20;63.80
15609;DHT22;64278;45.642;13.756;2023-05-16T03:42:42;22.10;63.80
15609;DHT22;64278;45.642;13.756;2023-05-16T03:45:08;22.10;63.80
15609;DHT22;64278;45.642;13.756;2023-05-16T03:47:34;22.20;63.80
15609;DHT22;64278;45.642;13.756;2023-05-16T03:49:59;22.20;63.80
15609;DHT22;64278;45.642;13.756;2023-05-16T03:52:25;22.20;63.80
15609;DHT22;64278;45.642;13.756;2023-05-16T03:54:51;22.10;63.70
15609;DHT22;64278;45.642;13.756;2023-05-16T03:57:16;22.10;63.70
15609;DHT22;64278;45.642;13.756;2023-05-16T03:59:42;22.10;63.70
15609;DHT22;64278;45.642;13.756;2023-05-16T04:02:08;22.10;63.70
15609;DHT22;64278;45.642;13.756;2023-05-16T04:04:34;22.10;63.70
15609;DHT22;64278;45.642;13.756;2023-05-16T04:07:00;22.20;63.80
15609;DHT22;64278;45.642;13.756;2023-05-16T04:09:26;22.10;63.60
15609;DHT22;64278;45.642;13.756;2023-05-16T04:11:52;22.10;63.60
15609;DHT22;64278;45.642;13.756;2023-05-16T04:14:20;22.10;63.60
15609;DHT22;64278;45.642;13.756;2023-05-16T04:16:45;22.20;63.70
15609;DHT22;64278;45.642;13.756;2023-05-16T04:19:11;22.10;63.70
15609;DHT22;64278;45.642;13.756;2023-05-16T04:21:36;22.10;63.60
15609;DHT22;64278;45.642;13.756;2023-05-16T04:24:03;22.10;63.60
15609;DHT22;64278;45.642;13.756;2023-05-16T04:26:29;22.20;63.70
15609;DHT22;64278;45.642;13.756;2023-05-16T04:28:54;22.10;63.70
15609;DHT22;64278;45.642;13.756;2023-05-16T04:31:21;22.10;63.70
15609;DHT22;64278;45.642;13.756;2023-05-16T04:33:47;22.10;63.60
15609;DHT22;64278;45.642;13.756;2023-05-16T04:36:13;22.10;63.70
15609;DHT22;64278;45.642;13.756;2023-05-16T04:38:39;22.10;63.70
15609;DHT22;64278;45.642;13.756;2023-05-16T04:41:06;22.10;63.70
15609;DHT22;64278;45.642;13.756;2023-05-16T04:43:31;22.10;63.60
15609;DHT22;64278;45.642;13.756;2023-05-16T04:45:57;22.10;63.70
15609;DHT22;64278;45.642;13.756;2023-05-16T04:48:23;22.10;63.70
15609;DHT22;64278;45.642;13.756;2023-05-16T04:50:49;22.10;63.70
15609;DHT22;64278;45.642;13.756;2023-05-16T04:53:15;22.10;63.60
15609;DHT22;64278;45.642;13.756;2023-05-16T04:55:41;22.00;63.50
15609;DHT22;64278;45.642;13.756;2023-05-16T04:58:07;22.10;63.60
15609;DHT22;64278;45.642;13.756;2023-05-16T05:00:33;22.10;63.60
15609;DHT22;64278;45.642;13.756;2023-05-16T05:02:59;22.10;63.60
15609;DHT22;64278;45.642;13.756;2023-05-16T05:05:24;22.10;63.60
15609;DHT22;64278;45.642;13.756;2023-05-16T05:07:50;22.00;63.50
15609;DHT22;64278;45.642;13.756;2023-05-16T05:10:16;22.10;63.60
15609;DHT22;64278;45.642;13.756;2023-05-16T05:12:42;22.10;63.60
15609;DHT22;64278;45.642;13.756;2023-05-16T05:15:08;22.10;63.60
15609;DHT22;64278;45.642;13.756;2023-05-16T05:17:34;22.10;63.50
15609;DHT22;64278;45.642;13.756;2023-05-16T05:19:59;22.10;63.50
15609;DHT22;64278;45.642;13.756;2023-05-16T05:22:25;22.10;64.30
15609;DHT22;64278;45.642;13.756;2023-05-16T05:24:51;22.10;63.40
15609;DHT22;64278;45.642;13.756;2023-05-16T05:27:16;22.00;63.40
15609;DHT22;64278;45.642;13.756;2023-05-16T05:29:42;22.10;63.50
15609;DHT22;64278;45.642;13.756;2023-05-16T05:32:07;22.10;63.50
15609;DHT22;64278;45.642;13.756;2023-05-16T05:34:33;22.10;63.50
15609;DHT22;64278;45.642;13.756;2023-05-16T05:36:59;22.10;63.50
15609;DHT22;64278;45.642;13.756;2023-05-16T05:39:25;22.00;63.40
15609;DHT22;64278;45.642;13.756;2023-05-16T05:41:51;22.00;63.40
15609;DHT22;64278;45.642;13.756;2023-05-16T05:44:17;22.00;63.40
15609;DHT22;64278;45.642;13.756;2023-05-16T05:46:42;22.10;63.50
15609;DHT22;64278;45.642;13.756;2023-05-16T05:49:08;22.10;63.50
15609;DHT22;64278;45.642;13.756;2023-05-16T05:51:34;22.00;63.40
15609;DHT22;64278;45.642;13.756;2023-05-16T05:54:00;22.10;63.60
15609;DHT22;64278;45.642;13.756;2023-05-16T05:56:26;22.00;63.50
15609;DHT22;64278;45.642;13.756;2023-05-16T05:58:52;22.10;63.50
15609;DHT22;64278;45.642;13.756;2023-05-16T06:01:18;22.00;63.50
15609;DHT22;64278;45.642;13.756;2023-05-16T06:03:45;22.10;63.50
15609;DHT22;64278;45.642;13.756;2023-05-16T06:06:11;22.00;63.40
15609;DHT22;64278;45.642;13.756;2023-05-16T06:08:37;22.00;63.40
15609;DHT22;64278;45.642;13.756;2023-05-16T06:11:02;22.00;63.40
15609;DHT22;64278;45.642;13.756;2023-05-16T06:13:29;22.00;63.40
15609;DHT22;64278;45.642;13.756;2023-05-16T06:15:54;22.00;63.30
15609;DHT22;64278;45.642;13.756;2023-05-16T06:18:20;22.00;63.30
15609;DHT22;64278;45.642;13.756;2023-05-16T06:20:46;22.00;63.20
15609;DHT22;64278;45.642;13.756;2023-05-16T06:23:11;22.00;63.30
15609;DHT22;64278;45.642;13.756;2023-05-16T06:25:37;22.00;63.20
15609;DHT22;64278;45.642;13.756;2023-05-16T06:28:03;22.00;63.20
15609;DHT22;64278;45.642;13.756;2023-05-16T06:30:29;22.00;63.20
15609;DHT22;64278;45.642;13.756;2023-05-16T06:32:55;22.00;63.10
15609;DHT22;64278;45.642;13.756;2023-05-16T06:35:21;22.00;63.00
15609;DHT22;64278;45.642;13.756;2023-05-16T06:37:47;22.00;63.00
15609;DHT22;64278;45.642;13.756;2023-05-16T06:40:13;22.00;63.00
15609;DHT22;64278;45.642;13.756;2023-05-16T06:42:39;22.00;63.00
15609;DHT22;64278;45.642;13.756;2023-05-16T06:45:05;22.00;63.00
15609;DHT22;64278;45.642;13.756;2023-05-16T06:47:31;22.00;63.00
15609;DHT22;64278;45.642;13.756;2023-05-16T06:49:57;22.00;63.10
15609;DHT22;64278;45.642;13.756;2023-05-16T06:52:22;22.00;63.00
15609;DHT22;64278;45.642;13.756;2023-05-16T06:54:48;22.00;63.00
15609;DHT22;64278;45.642;13.756;2023-05-16T06:57:14;22.00;63.00
15609;DHT22;64278;45.642;13.756;2023-05-16T06:59:39;22.00;63.00
15609;DHT22;64278;45.642;13.756;2023-05-16T07:02:05;22.00;63.00
15609;DHT22;64278;45.642;13.756;2023-05-16T07:04:31;22.00;62.90
15609;DHT22;64278;45.642;13.756;2023-05-16T07:06:58;22.00;62.90
15609;DHT22;64278;45.642;13.756;2023-05-16T07:09:24;22.00;63.00
15609;DHT22;64278;45.642;13.756;2023-05-16T07:11:50;22.00;63.00
15609;DHT22;64278;45.642;13.756;2023-05-16T07:14:15;22.00;62.90
15609;DHT22;64278;45.642;13.756;2023-05-16T07:16:41;22.00;62.90
15609;DHT22;64278;45.642;13.756;2023-05-16T07:19:07;22.00;63.00
15609;DHT22;64278;45.642;13.756;2023-05-16T07:21:32;22.00;63.00
15609;DHT22;64278;45.642;13.756;2023-05-16T07:23:58;22.00;63.00
15609;DHT22;64278;45.642;13.756;2023-05-16T07:26:24;22.00;63.10
15609;DHT22;64278;45.642;13.756;2023-05-16T07:28:49;22.00;63.30
15609;DHT22;64278;45.642;13.756;2023-05-16T07:31:15;22.00;63.50
15609;DHT22;64278;45.642;13.756;2023-05-16T07:33:42;22.00;63.60
15609;DHT22;64278;45.642;13.756;2023-05-16T07:36:08;22.00;63.70
15609;DHT22;64278;45.642;13.756;2023-05-16T07:38:35;22.00;64.00
15609;DHT22;64278;45.642;13.756;2023-05-16T07:41:00;22.00;64.00
15609;DHT22;64278;45.642;13.756;2023-05-16T07:43:26;22.00;64.20
15609;DHT22;64278;45.642;13.756;2023-05-16T07:45:52;22.00;64.40
15609;DHT22;64278;45.642;13.756;2023-05-16T07:48:17;22.00;64.60
15609;DHT22;64278;45.642;13.756;2023-05-16T07:50:43;22.00;64.80
15609;DHT22;64278;45.642;13.756;2023-05-16T07:53:09;22.00;65.00
15609;DHT22;64278;45.642;13.756;2023-05-16T07:55:34;22.00;65.30
15609;DHT22;64278;45.642;13.756;2023-05-16T07:58:01;22.00;65.60
15609;DHT22;64278;45.642;13.756;2023-05-16T08:00:27;22.00;65.80
15609;DHT22;64278;45.642;13.756;2023-05-16T08:02:53;22.00;65.90
15609;DHT22;64278;45.642;13.756;2023-05-16T08:05:19;22.00;65.90
15609;DHT22;64278;45.642;13.756;2023-05-16T08:07:44;22.00;66.20
15609;DHT22;64278;45.642;13.756;2023-05-16T08:10:10;22.00;66.50
15609;DHT22;64278;45.642;13.756;2023-05-16T08:12:36;22.00;66.70
15609;DHT22;64278;45.642;13.756;2023-05-16T08:15:02;22.00;66.70
15609;DHT22;64278;45.642;13.756;2023-05-16T08:17:28;22.00;66.80
15609;DHT22;64278;45.642;13.756;2023-05-16T08:19:54;22.00;66.80
15609;DHT22;64278;45.642;13.756;2023-05-16T08:22:20;22.00;66.90
15609;DHT22;64278;45.642;13.756;2023-05-16T08:24:46;22.00;67.00
15609;DHT22;64278;45.642;13.756;2023-05-16T08:27:11;22.00;67.30
15609;DHT22;64278;45.642;13.756;2023-05-16T08:29:37;22.00;67.30
15609;DHT22;64278;45.642;13.756;2023-05-16T08:32:03;22.00;67.40
15609;DHT22;64278;45.642;13.756;2023-05-16T08:34:32;22.00;67.40
15609;DHT22;64278;45.642;13.756;2023-05-16T08:36:58;22.00;67.50
15609;DHT22;64278;45.642;13.756;2023-05-16T08:39:25;22.00;67.60
15609;DHT22;64278;45.642;13.756;2023-05-16T08:41:50;22.00;67.50
15609;DHT22;64278;45.642;13.756;2023-05-16T08:44:16;22.00;67.50
15609;DHT22;64278;45.642;13.756;2023-05-16T08:46:50;22.00;67.50
15609;DHT22;64278;45.642;13.756;2023-05-16T08:49:20;22.00;67.70
15609;DHT22;64278;45.642;13.756;2023-05-16T08:51:46;22.00;67.60
15609;DHT22;64278;45.642;13.756;2023-05-16T08:54:13;22.00;67.60
15609;DHT22;64278;45.642;13.756;2023-05-16T08:56:43;22.00;67.70
15609;DHT22;64278;45.642;13.756;2023-05-16T08:59:10;22.00;68.20
15609;DHT22;64278;45.642;13.756;2023-05-16T09:01:37;22.00;68.30
15609;DHT22;64278;45.642;13.756;2023-05-16T09:04:05;22.00;68.30
15609;DHT22;64278;45.642;13.756;2023-05-16T09:06:31;22.00;68.40
15609;DHT22;64278;45.642;13.756;2023-05-16T09:08:57;22.00;68.50
15609;DHT22;64278;45.642;13.756;2023-05-16T09:11:22;22.00;68.50
15609;DHT22;64278;45.642;13.756;2023-05-16T09:13:48;22.00;68.50
15609;DHT22;64278;45.642;13.756;2023-05-16T09:16:16;22.00;68.60
15609;DHT22;64278;45.642;13.756;2023-05-16T09:18:43;22.00;68.50
15609;DHT22;64278;45.642;13.756;2023-05-16T09:21:10;22.00;68.50
15609;DHT22;64278;45.642;13.756;2023-05-16T09:23:36;22.00;68.60
15609;DHT22;64278;45.642;13.756;2023-05-16T09:26:04;22.10;68.70
15609;DHT22;64278;45.642;13.756;2023-05-16T09:28:31;22.10;68.60
15609;DHT22;64278;45.642;13.756;2023-05-16T09:30:57;22.00;68.60
15609;DHT22;64278;45.642;13.756;2023-05-16T09:33:26;22.00;68.60
15609;DHT22;64278;45.642;13.756;2023-05-16T09:35:56;22.10;68.60
15609;DHT22;64278;45.642;13.756;2023-05-16T09:38:23;22.00;68.60
15609;DHT22;64278;45.642;13.756;2023-05-16T09:40:49;22.10;68.60
15609;DHT22;64278;45.642;13.756;2023-05-16T09:43:16;22.10;68.60
15609;DHT22;64278;45.642;13.756;2023-05-16T09:45:45;22.10;68.60
15609;DHT22;64278;45.642;13.756;2023-05-16T09:48:13;22.10;68.50
15609;DHT22;64278;45.642;13.756;2023-05-16T09:50:39;22.10;68.50
15609;DHT22;64278;45.642;13.756;2023-05-16T09:53:07;22.10;68.40
15609;DHT22;64278;45.642;13.756;2023-05-16T09:55:33;22.10;68.40
15609;DHT22;64278;45.642;13.756;2023-05-16T09:57:59;22.10;68.40
15609;DHT22;64278;45.642;13.756;2023-05-16T10:00:32;22.10;68.30
15609;DHT22;64278;45.642;13.756;2023-05-16T10:02:59;22.10;68.30
15609;DHT22;64278;45.642;13.756;2023-05-16T10:05:26;22.10;67.90
15609;DHT22;64278;45.642;13.756;2023-05-16T10:07:56;22.00;67.50
15609;DHT22;64278;45.642;13.756;2023-05-16T10:10:22;22.00;67.30
15609;DHT22;64278;45.642;13.756;2023-05-16T10:12:49;22.00;67.30
15609;DHT22;64278;45.642;13.756;2023-05-16T10:15:16;22.00;67.30
15609;DHT22;64278;45.642;13.756;2023-05-16T10:17:44;22.00;67.50
15609;DHT22;64278;45.642;13.756;2023-05-16T10:20:13;22.00;67.80
15609;DHT22;64278;45.642;13.756;2023-05-16T10:22:42;22.00;67.90
15609;DHT22;64278;45.642;13.756;2023-05-16T10:27:35;22.00;68.00
15609;DHT22;64278;45.642;13.756;2023-05-16T10:30:02;22.00;67.80
15609;DHT22;64278;45.642;13.756;2023-05-16T10:32:30;22.00;67.70
15609;DHT22;64278;45.642;13.756;2023-05-16T10:34:56;22.00;67.50
15609;DHT22;64278;45.642;13.756;2023-05-16T10:37:25;22.00;67.40
15609;DHT22;64278;45.642;13.756;2023-05-16T10:39:52;22.00;67.30
15609;DHT22;64278;45.642;13.756;2023-05-16T10:42:18;22.00;67.10
15609;DHT22;64278;45.642;13.756;2023-05-16T10:44:45;22.00;66.90
15609;DHT22;64278;45.642;13.756;2023-05-16T10:47:10;22.00;66.90
15609;DHT22;64278;45.642;13.756;2023-05-16T10:49:39;22.00;66.80
15609;DHT22;64278;45.642;13.756;2023-05-16T10:52:12;22.00;66.80
15609;DHT22;64278;45.642;13.756;2023-05-16T10:54:49;22.00;66.70
15609;DHT22;64278;45.642;13.756;2023-05-16T10:57:18;22.00;66.60
15609;DHT22;64278;45.642;13.756;2023-05-16T10:59:48;22.00;66.60
15609;DHT22;64278;45.642;13.756;2023-05-16T11:02:31;22.00;66.50
15609;DHT22;64278;45.642;13.756;2023-05-16T11:04:59;22.00;66.30
15609;DHT22;64278;45.642;13.756;2023-05-16T11:07:32;22.00;66.10
15609;DHT22;64278;45.642;13.756;2023-05-16T11:10:05;22.00;66.00
15609;DHT22;64278;45.642;13.756;2023-05-16T11:12:51;22.00;65.90
15609;DHT22;64278;45.642;13.756;2023-05-16T11:15:22;22.00;65.90
15609;DHT22;64278;45.642;13.756;2023-05-16T11:17:48;22.00;66.00
15609;DHT22;64278;45.642;13.756;2023-05-16T11:20:30;21.90;66.80
15609;DHT22;64278;45.642;13.756;2023-05-16T11:23:20;21.90;66.00
15609;DHT22;64278;45.642;13.756;2023-05-16T11:25:56;22.00;66.10
15609;DHT22;64278;45.642;13.756;2023-05-16T11:28:26;21.90;66.10
15609;DHT22;64278;45.642;13.756;2023-05-16T11:30:54;22.00;66.20
15609;DHT22;64278;45.642;13.756;2023-05-16T11:33:23;22.00;66.40
15609;DHT22;64278;45.642;13.756;2023-05-16T11:36:06;22.00;66.50
15609;DHT22;64278;45.642;13.756;2023-05-16T11:38:33;22.00;66.60
15609;DHT22;64278;45.642;13.756;2023-05-16T11:41:07;22.00;66.60
15609;DHT22;64278;45.642;13.756;2023-05-16T11:43:41;21.90;66.50
15609;DHT22;64278;45.642;13.756;2023-05-16T11:46:13;21.90;66.40
15609;DHT22;64278;45.642;13.756;2023-05-16T11:48:40;21.90;66.50
15609;DHT22;64278;45.642;13.756;2023-05-16T11:51:07;21.90;66.50
15609;DHT22;64278;45.642;13.756;2023-05-16T11:53:33;21.90;66.40
15609;DHT22;64278;45.642;13.756;2023-05-16T11:55:59;22.00;66.40
15609;DHT22;64278;45.642;13.756;2023-05-16T11:58:27;21.90;66.30
15609;DHT22;64278;45.642;13.756;2023-05-16T12:00:53;21.90;66.30
15609;DHT22;64278;45.642;13.756;2023-05-16T12:03:19;21.90;66.30
15609;DHT22;64278;45.642;13.756;2023-05-16T12:05:55;21.90;66.30
15609;DHT22;64278;45.642;13.756;2023-05-16T12:08:22;21.90;66.40
15609;DHT22;64278;45.642;13.756;2023-05-16T12:10:50;22.00;66.20
15609;DHT22;64278;45.642;13.756;2023-05-16T12:13:18;22.00;66.20
15609;DHT22;64278;45.642;13.756;2023-05-16T12:15:45;22.10;66.10
15609;DHT22;64278;45.642;13.756;2023-05-16T12:18:11;22.10;66.00
15609;DHT22;64278;45.642;13.756;2023-05-16T12:20:37;22.20;66.00
15609;DHT22;64278;45.642;13.756;2023-05-16T12:23:02;22.30;66.00
15609;DHT22;64278;45.642;13.756;2023-05-16T12:25:33;22.30;65.80
15609;DHT22;64278;45.642;13.756;2023-05-16T12:28:03;22.40;65.70
15609;DHT22;64278;45.642;13.756;2023-05-16T12:30:31;22.50;65.80
15609;DHT22;64278;45.642;13.756;2023-05-16T12:33:01;22.60;65.80
15609;DHT22;64278;45.642;13.756;2023-05-16T12:35:31;22.60;65.60
15609;DHT22;64278;45.642;13.756;2023-05-16T12:37:58;22.70;65.60
15609;DHT22;64278;45.642;13.756;2023-05-16T12:40:30;22.70;65.50
15609;DHT22;64278;45.642;13.756;2023-05-16T12:42:56;22.70;65.40
15609;DHT22;64278;45.642;13.756;2023-05-16T12:45:22;22.80;65.40
15609;DHT22;64278;45.642;13.756;2023-05-16T12:47:48;22.80;65.20
15609;DHT22;64278;45.642;13.756;2023-05-16T12:50:15;22.90;65.20
15609;DHT22;64278;45.642;13.756;2023-05-16T12:52:59;22.90;65.10
15609;DHT22;64278;45.642;13.756;2023-05-16T12:55:25;23.00;65.10
15609;DHT22;64278;45.642;13.756;2023-05-16T12:57:51;23.00;65.00
15609;DHT22;64278;45.642;13.756;2023-05-16T13:00:20;23.00;64.90
15609;DHT22;64278;45.642;13.756;2023-05-16T13:02:48;23.00;64.80
15609;DHT22;64278;45.642;13.756;2023-05-16T13:05:14;23.00;64.70
15609;DHT22;64278;45.642;13.756;2023-05-16T13:07:40;23.10;64.70
15609;DHT22;64278;45.642;13.756;2023-05-16T13:10:07;23.10;64.60
15609;DHT22;64278;45.642;13.756;2023-05-16T13:12:40;23.10;64.60
15609;DHT22;64278;45.642;13.756;2023-05-16T13:15:06;23.10;64.60
15609;DHT22;64278;45.642;13.756;2023-05-16T13:17:34;23.10;64.40
15609;DHT22;64278;45.642;13.756;2023-05-16T13:19:59;23.10;64.40
15609;DHT22;64278;45.642;13.756;2023-05-16T13:22:26;23.10;64.30
15609;DHT22;64278;45.642;13.756;2023-05-16T13:24:51;23.10;64.20
15609;DHT22;64278;45.642;13.756;2023-05-16T13:27:17;23.10;64.20
15609;DHT22;64278;45.642;13.756;2023-05-16T13:29:43;23.10;64.10
15609;DHT22;64278;45.642;13.756;2023-05-16T13:32:09;23.10;64.10
15609;DHT22;64278;45.642;13.756;2023-05-16T13:34:35;23.10;64.00
15609;DHT22;64278;45.642;13.756;2023-05-16T13:37:00;23.10;63.90
15609;DHT22;64278;45.642;13.756;2023-05-16T13:39:26;23.10;63.90
15609;DHT22;64278;45.642;13.756;2023-05-16T13:41:52;23.10;63.90
15609;DHT22;64278;45.642;13.756;2023-05-16T13:44:17;23.10;63.80
15609;DHT22;64278;45.642;13.756;2023-05-16T13:46:43;23.10;63.80
15609;DHT22;64278;45.642;13.756;2023-05-16T13:49:09;23.10;63.70
15609;DHT22;64278;45.642;13.756;2023-05-16T13:51:35;23.10;63.70
15609;DHT22;64278;45.642;13.756;2023-05-16T13:54:01;23.10;63.70
15609;DHT22;64278;45.642;13.756;2023-05-16T13:56:26;23.10;63.60
15609;DHT22;64278;45.642;13.756;2023-05-16T13:58:52;23.10;63.60
15609;DHT22;64278;45.642;13.756;2023-05-16T14:01:18;23.10;63.60
15609;DHT22;64278;45.642;13.756;2023-05-16T14:03:43;23.10;63.50
15609;DHT22;64278;45.642;13.756;2023-05-16T14:06:09;23.10;63.40
15609;DHT22;64278;45.642;13.756;2023-05-16T14:08:35;23.10;63.40
15609;DHT22;64278;45.642;13.756;2023-05-16T14:11:00;23.10;64.10
15609;DHT22;64278;45.642;13.756;2023-05-16T14:13:26;23.10;63.40
15609;DHT22;64278;45.642;13.756;2023-05-16T14:15:52;23.10;63.40
15609;DHT22;64278;45.642;13.756;2023-05-16T14:18:18;23.00;63.30
15609;DHT22;64278;45.642;13.756;2023-05-16T14:20:43;23.00;63.30
15609;DHT22;64278;45.642;13.756;2023-05-16T14:23:09;23.00;63.30
15609;DHT22;64278;45.642;13.756;2023-05-16T14:25:35;23.00;63.30
15609;DHT22;64278;45.642;13.756;2023-05-16T14:28:00;23.00;63.20
15609;DHT22;64278;45.642;13.756;2023-05-16T14:30:26;23.00;63.20
15609;DHT22;64278;45.642;13.756;2023-05-16T14:32:52;23.00;63.20
15609;DHT22;64278;45.642;13.756;2023-05-16T14:35:18;23.00;63.20
15609;DHT22;64278;45.642;13.756;2023-05-16T14:37:44;23.00;63.20
15609;DHT22;64278;45.642;13.756;2023-05-16T14:40:09;23.00;63.20
15609;DHT22;64278;45.642;13.756;2023-05-16T14:42:35;23.00;63.10
15609;DHT22;64278;45.642;13.756;2023-05-16T14:45:01;23.00;63.10
15609;DHT22;64278;45.642;13.756;2023-05-16T14:47:27;23.00;63.10
15609;DHT22;64278;45.642;13.756;2023-05-16T14:49:55;22.90;63.00
15609;DHT22;64278;45.642;13.756;2023-05-16T14:52:21;23.00;63.10
15609;DHT22;64278;45.642;13.756;2023-05-16T14:54:46;23.00;63.10
15609;DHT22;64278;45.642;13.756;2023-05-16T14:57:12;23.00;63.10
15609;DHT22;64278;45.642;13.756;2023-05-16T14:59:38;23.00;63.10
15609;DHT22;64278;45.642;13.756;2023-05-16T15:02:04;22.90;63.00
15609;DHT22;64278;45.642;13.756;2023-05-16T15:04:31;23.00;63.10
15609;DHT22;64278;45.642;13.756;2023-05-16T15:06:57;22.90;63.00
15609;DHT22;64278;45.642;13.756;2023-05-16T15:09:23;22.90;63.00
15609;DHT22;64278;45.642;13.756;2023-05-16T15:11:48;22.90;63.00
15609;DHT22;64278;45.642;13.756;2023-05-16T15:14:14;22.90;63.10
15609;DHT22;64278;45.642;13.756;2023-05-16T15:16:40;22.90;63.00
15609;DHT22;64278;45.642;13.756;2023-05-16T15:19:06;22.90;63.80
15609;DHT22;64278;45.642;13.756;2023-05-16T15:21:31;22.90;63.00
15609;DHT22;64278;45.642;13.756;2023-05-16T15:23:57;22.90;63.00
15609;DHT22;64278;45.642;13.756;2023-05-16T15:26:23;22.90;63.00